createdAt,value
2019-01-13T00:00:17.406Z,986.16
2019-01-13T00:01:17.561Z,986.09
2019-01-13T00:02:18.050Z,986.11
2019-01-13T00:03:17.877Z,986.05
2019-01-13T00:04:18.095Z,986.07
2019-01-13T00:05:18.189Z,986.04
2019-01-13T00:06:18.368Z,985.99
2019-01-13T00:07:18.632Z,986.04
2019-01-13T00:08:18.658Z,986.01
2019-01-13T00:09:19.776Z,986.02
2019-01-13T00:10:18.977Z,986.02
2019-01-13T00:11:19.163Z,986.02
2019-01-13T00:12:19.348Z,986.10
2019-01-13T00:13:19.537Z,986.06
2019-01-13T00:14:20.111Z,986.09
2019-01-13T00:15:19.851Z,986.11
2019-01-13T00:16:20.015Z,986.10
2019-01-13T00:17:20.209Z,986.09
2019-01-13T00:18:20.411Z,986.09
2019-01-13T00:19:20.532Z,986.09
2019-01-13T00:20:20.687Z,986.07
2019-01-13T00:21:20.844Z,986.07
2019-01-13T00:22:22.031Z,986.11
2019-01-13T00:23:21.409Z,986.05
2019-01-13T00:24:21.474Z,986.03
2019-01-13T00:25:21.617Z,986.04
2019-01-13T00:26:21.786Z,986.06
2019-01-13T00:27:21.951Z,986.04
2019-01-13T00:28:22.142Z,986.06
2019-01-13T00:29:22.278Z,986.08
2019-01-13T00:30:22.467Z,986.06
2019-01-13T00:31:22.615Z,986.04
2019-01-13T00:32:22.795Z,986.04
2019-01-13T00:33:22.935Z,986.03
2019-01-13T00:34:23.111Z,986.03
2019-01-13T00:35:23.276Z,986.02
2019-01-13T00:36:23.445Z,986.03
2019-01-13T00:37:23.639Z,986.00
2019-01-13T00:38:23.792Z,986.03
2019-01-13T00:39:23.969Z,986.07
2019-01-13T00:40:24.166Z,986.16
2019-01-13T00:41:24.333Z,986.16
2019-01-13T00:42:24.573Z,986.15
2019-01-13T00:43:24.707Z,986.17
2019-01-13T00:44:24.867Z,986.18
2019-01-13T00:45:25.038Z,986.19
2019-01-13T00:46:25.235Z,986.22
2019-01-13T00:47:25.368Z,986.24
2019-01-13T00:48:25.542Z,986.22
2019-01-13T00:49:25.721Z,986.21
2019-01-13T00:50:25.892Z,986.22
2019-01-13T00:51:26.204Z,986.18
2019-01-13T00:52:26.202Z,986.13
2019-01-13T00:53:26.366Z,986.19
2019-01-13T00:54:26.531Z,986.21
2019-01-13T00:55:26.696Z,986.22
2019-01-13T00:56:26.856Z,986.20
2019-01-13T00:57:27.017Z,986.23
2019-01-13T00:58:27.205Z,986.23
2019-01-13T00:59:27.355Z,986.21
2019-01-13T01:00:27.528Z,986.23
2019-01-13T01:01:27.808Z,986.23
2019-01-13T01:02:27.826Z,986.24
2019-01-13T01:03:28.020Z,986.24
2019-01-13T01:04:28.179Z,986.26
2019-01-13T01:05:28.309Z,986.27
2019-01-13T01:06:28.474Z,986.28
2019-01-13T01:07:28.645Z,986.26
2019-01-13T01:08:28.812Z,986.31
2019-01-13T01:09:28.978Z,986.32
2019-01-13T01:10:29.136Z,986.35
2019-01-13T01:11:29.302Z,986.36
2019-01-13T01:12:29.503Z,986.36
2019-01-13T01:13:29.670Z,986.40
2019-01-13T01:14:29.834Z,986.41
2019-01-13T01:15:30.026Z,986.39
2019-01-13T01:16:30.174Z,986.35
2019-01-13T01:17:30.334Z,986.37
2019-01-13T01:18:30.498Z,986.39
2019-01-13T01:19:30.667Z,986.37
2019-01-13T01:20:30.828Z,986.37
2019-01-13T01:21:31.038Z,986.34
2019-01-13T01:22:31.103Z,986.32
2019-01-13T01:23:31.264Z,986.34
2019-01-13T01:24:31.436Z,986.33
2019-01-13T01:25:31.594Z,986.31
2019-01-13T01:26:31.768Z,986.35
2019-01-13T01:27:31.955Z,986.33
2019-01-13T01:28:32.100Z,986.38
2019-01-13T01:29:32.264Z,986.40
2019-01-13T01:30:33.615Z,986.38
2019-01-13T01:31:32.610Z,986.33
2019-01-13T01:32:32.796Z,986.34
2019-01-13T01:33:32.979Z,986.36
2019-01-13T01:34:33.153Z,986.30
2019-01-13T01:35:33.316Z,986.35
2019-01-13T01:36:33.481Z,986.32
2019-01-13T01:37:33.649Z,986.33
2019-01-13T01:38:33.850Z,986.34
2019-01-13T01:39:33.986Z,986.32
2019-01-13T01:40:34.269Z,986.29
2019-01-13T01:41:34.271Z,986.33
2019-01-13T01:42:34.495Z,986.29
2019-01-13T01:43:34.627Z,986.31
2019-01-13T01:44:34.853Z,986.27
2019-01-13T01:45:34.967Z,986.29
2019-01-13T01:46:35.129Z,986.34
2019-01-13T01:47:35.293Z,986.30
2019-01-13T01:48:35.460Z,986.29
2019-01-13T01:49:35.638Z,986.27
2019-01-13T01:50:35.812Z,986.32
2019-01-13T01:51:35.980Z,986.30
2019-01-13T01:52:36.141Z,986.30
2019-01-13T01:53:36.305Z,986.31
2019-01-13T01:54:36.468Z,986.26
2019-01-13T01:55:38.298Z,986.24
2019-01-13T01:56:36.744Z,986.18
2019-01-13T01:57:36.906Z,986.21
2019-01-13T01:58:37.069Z,986.24
2019-01-13T01:59:37.233Z,986.23
2019-01-13T02:00:40.737Z,986.23
2019-01-13T02:01:39.313Z,986.26
2019-01-13T02:02:37.691Z,986.23
2019-01-13T02:03:37.894Z,986.20
2019-01-13T02:04:38.049Z,986.24
2019-01-13T02:05:38.262Z,986.21
2019-01-13T02:06:38.441Z,986.17
2019-01-13T02:07:38.558Z,986.22
2019-01-13T02:08:38.707Z,986.21
2019-01-13T02:09:38.899Z,986.12
2019-01-13T02:10:39.065Z,986.10
2019-01-13T02:11:39.239Z,986.12
2019-01-13T02:12:39.304Z,986.18
2019-01-13T02:13:39.463Z,986.14
2019-01-13T02:14:39.783Z,986.15
2019-01-13T02:15:39.738Z,986.15
2019-01-13T02:16:39.897Z,986.14
2019-01-13T02:17:40.063Z,986.20
2019-01-13T02:18:40.262Z,986.17
2019-01-13T02:19:40.432Z,986.15
2019-01-13T02:20:40.595Z,986.17
2019-01-13T02:21:40.758Z,986.18
2019-01-13T02:22:41.051Z,986.19
2019-01-13T02:23:41.106Z,986.20
2019-01-13T02:24:41.273Z,986.18
2019-01-13T02:25:41.439Z,986.16
2019-01-13T02:26:41.606Z,986.16
2019-01-13T02:27:41.774Z,986.22
2019-01-13T02:28:41.962Z,986.15
2019-01-13T02:29:42.125Z,986.20
2019-01-13T02:30:48.965Z,986.19
2019-01-13T02:31:42.521Z,986.17
2019-01-13T02:32:42.592Z,986.14
2019-01-13T02:33:42.718Z,986.13
2019-01-13T02:34:42.851Z,986.11
2019-01-13T02:35:43.019Z,986.10
2019-01-13T02:36:43.197Z,986.05
2019-01-13T02:37:43.415Z,986.05
2019-01-13T02:38:43.523Z,986.01
2019-01-13T02:39:43.691Z,985.99
2019-01-13T02:40:43.899Z,986.02
2019-01-13T02:41:44.058Z,986.03
2019-01-13T02:42:44.263Z,986.02
2019-01-13T02:43:44.334Z,986.04
2019-01-13T02:44:44.510Z,985.99
2019-01-13T02:45:44.674Z,986.00
2019-01-13T02:46:44.842Z,986.01
2019-01-13T02:47:45.024Z,986.03
2019-01-13T02:48:45.190Z,986.04
2019-01-13T02:49:45.377Z,986.06
2019-01-13T02:50:45.568Z,986.04
2019-01-13T02:51:45.736Z,986.03
2019-01-13T02:52:45.909Z,985.95
2019-01-13T02:53:46.059Z,985.95
2019-01-13T02:54:46.231Z,985.96
2019-01-13T02:55:46.398Z,985.93
2019-01-13T02:56:46.555Z,985.90
2019-01-13T02:57:46.718Z,985.92
2019-01-13T02:58:46.884Z,985.84
2019-01-13T02:59:47.058Z,985.84
2019-01-13T03:00:47.250Z,985.82
2019-01-13T03:01:47.387Z,985.81
2019-01-13T03:02:47.550Z,985.82
2019-01-13T03:03:47.726Z,985.82
2019-01-13T03:04:47.885Z,985.76
2019-01-13T03:05:48.047Z,985.77
2019-01-13T03:06:48.216Z,985.80
2019-01-13T03:07:48.369Z,985.80
2019-01-13T03:08:48.538Z,985.81
2019-01-13T03:09:48.697Z,985.84
2019-01-13T03:10:48.862Z,985.77
2019-01-13T03:11:49.028Z,985.74
2019-01-13T03:12:49.209Z,985.77
2019-01-13T03:13:49.373Z,985.76
2019-01-13T03:14:49.548Z,985.75
2019-01-13T03:15:49.725Z,985.70
2019-01-13T03:16:49.924Z,985.73
2019-01-13T03:17:50.169Z,985.73
2019-01-13T03:18:50.206Z,985.66
2019-01-13T03:19:50.408Z,985.70
2019-01-13T03:20:50.529Z,985.67
2019-01-13T03:21:50.826Z,985.71
2019-01-13T03:22:50.890Z,985.69
2019-01-13T03:23:51.062Z,985.65
2019-01-13T03:24:51.260Z,985.67
2019-01-13T03:25:51.430Z,985.69
2019-01-13T03:26:51.599Z,985.62
2019-01-13T03:27:51.801Z,985.64
2019-01-13T03:28:52.045Z,985.58
2019-01-13T03:29:52.112Z,985.60
2019-01-13T03:30:52.291Z,985.62
2019-01-13T03:31:52.496Z,985.59
2019-01-13T03:32:52.728Z,985.60
2019-01-13T03:33:52.848Z,985.63
2019-01-13T03:34:53.011Z,985.66
2019-01-13T03:35:53.176Z,985.63
2019-01-13T03:36:53.337Z,985.63
2019-01-13T03:37:53.500Z,985.59
2019-01-13T03:38:53.665Z,985.59
2019-01-13T03:39:53.910Z,985.57
2019-01-13T03:40:53.957Z,985.57
2019-01-13T03:41:54.119Z,985.55
2019-01-13T03:42:54.309Z,985.53
2019-01-13T03:43:54.452Z,985.55
2019-01-13T03:44:54.609Z,985.55
2019-01-13T03:45:54.776Z,985.54
2019-01-13T03:46:54.934Z,985.50
2019-01-13T03:47:55.110Z,985.50
2019-01-13T03:48:55.272Z,985.48
2019-01-13T03:49:55.441Z,985.50
2019-01-13T03:50:56.828Z,985.48
2019-01-13T03:51:55.794Z,985.51
2019-01-13T03:52:55.957Z,985.48
2019-01-13T03:53:56.125Z,985.52
2019-01-13T03:54:56.304Z,985.49
2019-01-13T03:55:56.490Z,985.53
2019-01-13T03:56:56.680Z,985.49
2019-01-13T03:57:56.851Z,985.48
2019-01-13T03:58:57.027Z,985.51
2019-01-13T03:59:58.772Z,985.53
2019-01-13T04:00:57.329Z,985.47
2019-01-13T04:01:57.497Z,985.43
2019-01-13T04:02:57.676Z,985.46
2019-01-13T04:03:57.836Z,985.48
2019-01-13T04:04:57.983Z,985.52
2019-01-13T04:05:58.156Z,985.47
2019-01-13T04:06:58.322Z,985.43
2019-01-13T04:07:58.483Z,985.42
2019-01-13T04:08:58.653Z,985.42
2019-01-13T04:09:58.835Z,985.38
2019-01-13T04:10:58.932Z,985.39
2019-01-13T04:11:59.096Z,985.38
2019-01-13T04:12:59.259Z,985.36
2019-01-13T04:13:59.432Z,985.41
2019-01-13T04:14:59.593Z,985.42
2019-01-13T04:15:59.777Z,985.37
2019-01-13T04:16:59.926Z,985.32
2019-01-13T04:18:00.096Z,985.34
2019-01-13T04:19:00.277Z,985.31
2019-01-13T04:20:00.499Z,985.39
2019-01-13T04:21:00.609Z,985.33
2019-01-13T04:22:00.725Z,985.30
2019-01-13T04:23:00.890Z,985.36
2019-01-13T04:24:01.065Z,985.35
2019-01-13T04:25:01.264Z,985.30
2019-01-13T04:26:01.400Z,985.29
2019-01-13T04:27:01.576Z,985.30
2019-01-13T04:28:01.765Z,985.30
2019-01-13T04:29:01.915Z,985.27
2019-01-13T04:30:03.798Z,985.28
2019-01-13T04:31:02.230Z,985.29
2019-01-13T04:32:02.407Z,985.32
2019-01-13T04:33:02.584Z,985.27
2019-01-13T04:34:02.765Z,985.25
2019-01-13T04:35:02.953Z,985.23
2019-01-13T04:36:03.097Z,985.19
2019-01-13T04:37:03.276Z,985.15
2019-01-13T04:38:03.426Z,985.11
2019-01-13T04:39:03.593Z,985.09
2019-01-13T04:40:03.766Z,985.11
2019-01-13T04:41:03.928Z,985.06
2019-01-13T04:42:04.103Z,985.05
2019-01-13T04:43:04.270Z,985.06
2019-01-13T04:44:04.428Z,985.06
2019-01-13T04:45:04.596Z,985.05
2019-01-13T04:46:04.773Z,985.02
2019-01-13T04:47:04.934Z,984.97
2019-01-13T04:48:05.091Z,984.98
2019-01-13T04:49:05.259Z,984.96
2019-01-13T04:50:05.456Z,984.95
2019-01-13T04:51:05.617Z,984.86
2019-01-13T04:52:05.797Z,984.77
2019-01-13T04:53:05.968Z,984.77
2019-01-13T04:54:06.135Z,984.79
2019-01-13T04:55:06.306Z,984.73
2019-01-13T04:56:06.474Z,984.78
2019-01-13T04:57:06.643Z,984.79
2019-01-13T04:58:08.870Z,984.81
2019-01-13T04:59:06.979Z,984.84
2019-01-13T05:00:07.067Z,984.85
2019-01-13T05:01:07.270Z,984.75
2019-01-13T05:02:07.409Z,984.82
2019-01-13T05:03:07.578Z,984.73
2019-01-13T05:04:07.740Z,984.74
2019-01-13T05:05:07.912Z,984.72
2019-01-13T05:06:08.107Z,984.71
2019-01-13T05:07:08.194Z,984.67
2019-01-13T05:08:08.361Z,984.65
2019-01-13T05:09:08.525Z,984.67
2019-01-13T05:10:08.703Z,984.63
2019-01-13T05:11:08.896Z,984.66
2019-01-13T05:12:09.034Z,984.62
2019-01-13T05:13:09.199Z,984.61
2019-01-13T05:14:09.497Z,984.62
2019-01-13T05:15:09.591Z,984.64
2019-01-13T05:16:09.752Z,984.67
2019-01-13T05:17:09.919Z,984.65
2019-01-13T05:18:10.076Z,984.62
2019-01-13T05:19:10.419Z,984.58
2019-01-13T05:20:10.359Z,984.53
2019-01-13T05:21:10.512Z,984.54
2019-01-13T05:22:10.704Z,984.57
2019-01-13T05:23:10.838Z,984.52
2019-01-13T05:24:11.004Z,984.54
2019-01-13T05:25:11.173Z,984.50
2019-01-13T05:26:11.339Z,984.43
2019-01-13T05:27:11.504Z,984.38
2019-01-13T05:28:11.699Z,984.37
2019-01-13T05:29:11.832Z,984.32
2019-01-13T05:30:12.005Z,984.33
2019-01-13T05:31:12.229Z,984.36
2019-01-13T05:32:12.310Z,984.34
2019-01-13T05:33:12.484Z,984.36
2019-01-13T05:34:12.647Z,984.34
2019-01-13T05:35:12.809Z,984.28
2019-01-13T05:36:12.976Z,984.21
2019-01-13T05:37:13.138Z,984.18
2019-01-13T05:38:13.314Z,984.16
2019-01-13T05:39:13.473Z,984.14
2019-01-13T05:40:13.653Z,984.17
2019-01-13T05:41:13.815Z,984.13
2019-01-13T05:42:13.987Z,984.08
2019-01-13T05:43:14.161Z,984.08
2019-01-13T05:44:14.727Z,984.09
2019-01-13T05:45:14.518Z,984.11
2019-01-13T05:46:14.850Z,984.08
2019-01-13T05:47:14.881Z,984.06
2019-01-13T05:48:15.190Z,984.05
2019-01-13T05:49:15.191Z,984.02
2019-01-13T05:50:15.269Z,984.01
2019-01-13T05:51:15.443Z,984.03
2019-01-13T05:52:15.582Z,984.05
2019-01-13T05:53:15.777Z,984.03
2019-01-13T05:54:15.918Z,984.00
2019-01-13T05:55:16.105Z,983.96
2019-01-13T05:56:16.258Z,983.94
2019-01-13T05:57:16.431Z,983.90
2019-01-13T05:58:16.595Z,983.91
2019-01-13T05:59:16.775Z,983.90
2019-01-13T06:00:16.966Z,983.92
2019-01-13T06:01:17.130Z,983.92
2019-01-13T06:02:17.305Z,983.93
2019-01-13T06:03:17.780Z,983.92
2019-01-13T06:04:17.570Z,983.90
2019-01-13T06:05:17.751Z,983.93
2019-01-13T06:06:17.904Z,983.93
2019-01-13T06:07:18.096Z,983.97
2019-01-13T06:08:18.448Z,983.99
2019-01-13T06:09:18.329Z,984.00
2019-01-13T06:10:18.828Z,983.99
2019-01-13T06:11:18.623Z,983.99
2019-01-13T06:12:18.775Z,983.97
2019-01-13T06:13:18.937Z,983.98
2019-01-13T06:14:19.187Z,983.91
2019-01-13T06:15:19.282Z,983.88
2019-01-13T06:16:19.488Z,983.89
2019-01-13T06:17:19.620Z,983.91
2019-01-13T06:18:20.099Z,983.91
2019-01-13T06:19:19.899Z,983.87
2019-01-13T06:20:20.063Z,983.90
2019-01-13T06:21:20.250Z,983.91
2019-01-13T06:22:20.403Z,983.94
2019-01-13T06:23:20.570Z,983.91
2019-01-13T06:24:20.742Z,983.92
2019-01-13T06:25:20.951Z,983.98
2019-01-13T06:26:21.080Z,983.95
2019-01-13T06:27:21.267Z,983.92
2019-01-13T06:28:21.438Z,983.92
2019-01-13T06:29:21.636Z,983.91
2019-01-13T06:30:21.845Z,983.87
2019-01-13T06:31:21.944Z,983.85
2019-01-13T06:32:22.393Z,983.84
2019-01-13T06:33:22.305Z,983.77
2019-01-13T06:34:22.759Z,983.82
2019-01-13T06:35:22.688Z,983.80
2019-01-13T06:36:22.870Z,983.78
2019-01-13T06:37:23.037Z,983.77
2019-01-13T06:38:23.201Z,983.83
2019-01-13T06:39:23.403Z,983.81
2019-01-13T06:40:23.586Z,983.73
2019-01-13T06:41:23.756Z,983.75
2019-01-13T06:42:23.923Z,983.74
2019-01-13T06:43:24.079Z,983.77
2019-01-13T06:44:24.265Z,983.74
2019-01-13T06:45:24.439Z,983.75
2019-01-13T06:46:24.601Z,983.73
2019-01-13T06:47:24.817Z,983.68
2019-01-13T06:48:24.992Z,983.67
2019-01-13T06:49:25.063Z,983.68
2019-01-13T06:50:25.225Z,983.73
2019-01-13T06:51:25.394Z,983.67
2019-01-13T06:52:25.571Z,983.69
2019-01-13T06:53:25.758Z,983.70
2019-01-13T06:54:25.940Z,983.66
2019-01-13T06:55:26.089Z,983.69
2019-01-13T06:56:26.255Z,983.69
2019-01-13T06:57:26.436Z,983.65
2019-01-13T06:58:26.661Z,983.65
2019-01-13T06:59:26.833Z,983.65
2019-01-13T07:00:27.006Z,983.62
2019-01-13T07:01:27.171Z,983.59
2019-01-13T07:02:27.337Z,983.54
2019-01-13T07:03:27.502Z,983.48
2019-01-13T07:04:27.668Z,983.43
2019-01-13T07:05:27.861Z,983.39
2019-01-13T07:06:28.010Z,983.27
2019-01-13T07:07:28.163Z,983.32
2019-01-13T07:08:28.395Z,983.35
2019-01-13T07:09:28.561Z,983.34
2019-01-13T07:10:28.727Z,983.30
2019-01-13T07:11:28.899Z,983.27
2019-01-13T07:12:29.062Z,983.22
2019-01-13T07:13:29.240Z,983.21
2019-01-13T07:14:29.401Z,983.25
2019-01-13T07:15:29.561Z,983.24
2019-01-13T07:16:29.752Z,983.30
2019-01-13T07:17:29.943Z,983.31
2019-01-13T07:18:30.116Z,983.38
2019-01-13T07:19:30.288Z,983.32
2019-01-13T07:20:30.451Z,983.41
2019-01-13T07:21:30.624Z,983.36
2019-01-13T07:22:30.783Z,983.38
2019-01-13T07:23:30.958Z,983.37
2019-01-13T07:24:31.163Z,983.36
2019-01-13T07:25:31.282Z,983.36
2019-01-13T07:26:31.451Z,983.33
2019-01-13T07:27:31.668Z,983.35
2019-01-13T07:28:31.834Z,983.33
2019-01-13T07:29:31.998Z,983.30
2019-01-13T07:30:32.173Z,983.27
2019-01-13T07:31:32.367Z,983.27
2019-01-13T07:32:32.539Z,983.22
2019-01-13T07:33:32.710Z,983.25
2019-01-13T07:34:32.879Z,983.22
2019-01-13T07:35:33.051Z,983.19
2019-01-13T07:36:33.224Z,983.27
2019-01-13T07:37:33.432Z,983.27
2019-01-13T07:38:36.307Z,983.24
2019-01-13T07:39:33.670Z,983.18
2019-01-13T07:40:33.875Z,983.22
2019-01-13T07:41:34.049Z,983.16
2019-01-13T07:42:34.214Z,983.15
2019-01-13T07:43:34.392Z,983.14
2019-01-13T07:44:34.575Z,983.13
2019-01-13T07:45:34.666Z,983.09
2019-01-13T07:46:34.830Z,983.11
2019-01-13T07:47:34.995Z,983.11
2019-01-13T07:48:35.152Z,983.03
2019-01-13T07:49:35.319Z,983.04
2019-01-13T07:50:35.486Z,983.07
2019-01-13T07:51:35.679Z,983.03
2019-01-13T07:52:35.818Z,983.01
2019-01-13T07:53:35.983Z,983.00
2019-01-13T07:54:36.252Z,983.01
2019-01-13T07:55:36.437Z,982.99
2019-01-13T07:56:36.491Z,983.03
2019-01-13T07:57:36.658Z,982.95
2019-01-13T07:58:36.829Z,982.96
2019-01-13T07:59:36.998Z,982.95
2019-01-13T08:00:37.158Z,982.96
2019-01-13T08:01:37.315Z,982.97
2019-01-13T08:02:37.488Z,982.99
2019-01-13T08:03:37.668Z,982.96
2019-01-13T08:04:37.802Z,982.99
2019-01-13T08:05:37.971Z,982.95
2019-01-13T08:06:38.131Z,982.90
2019-01-13T08:07:38.309Z,982.92
2019-01-13T08:08:38.465Z,982.87
2019-01-13T08:09:38.658Z,982.86
2019-01-13T08:10:38.861Z,982.90
2019-01-13T08:11:39.009Z,982.93
2019-01-13T08:12:39.191Z,982.88
2019-01-13T08:13:39.390Z,982.80
2019-01-13T08:14:39.560Z,982.80
2019-01-13T08:15:39.783Z,982.77
2019-01-13T08:16:39.889Z,982.77
2019-01-13T08:17:40.041Z,982.81
2019-01-13T08:18:40.215Z,982.79
2019-01-13T08:19:40.391Z,982.80
2019-01-13T08:20:40.573Z,982.82
2019-01-13T08:21:40.757Z,982.75
2019-01-13T08:22:40.918Z,982.73
2019-01-13T08:23:41.145Z,982.72
2019-01-13T08:24:41.464Z,982.80
2019-01-13T08:25:41.450Z,982.78
2019-01-13T08:26:41.596Z,982.75
2019-01-13T08:27:41.835Z,982.74
2019-01-13T08:28:42.113Z,982.70
2019-01-13T08:29:42.124Z,982.62
2019-01-13T08:30:42.282Z,982.59
2019-01-13T08:31:42.444Z,982.56
2019-01-13T08:32:42.613Z,982.59
2019-01-13T08:33:42.784Z,982.57
2019-01-13T08:34:42.938Z,982.58
2019-01-13T08:35:43.154Z,982.61
2019-01-13T08:36:43.295Z,982.54
2019-01-13T08:37:43.466Z,982.51
2019-01-13T08:38:43.627Z,982.48
2019-01-13T08:39:43.797Z,982.47
2019-01-13T08:40:43.960Z,982.43
2019-01-13T08:41:44.122Z,982.41
2019-01-13T08:42:44.339Z,982.32
2019-01-13T08:43:44.454Z,982.32
2019-01-13T08:44:44.630Z,982.30
2019-01-13T08:45:50.230Z,982.24
2019-01-13T08:46:44.966Z,982.23
2019-01-13T08:47:45.132Z,982.21
2019-01-13T08:48:45.329Z,982.17
2019-01-13T08:49:45.514Z,982.16
2019-01-13T08:50:45.686Z,982.16
2019-01-13T08:51:45.843Z,982.12
2019-01-13T08:52:46.022Z,982.11
2019-01-13T08:53:46.199Z,982.11
2019-01-13T08:54:46.424Z,982.09
2019-01-13T08:55:46.529Z,982.07
2019-01-13T08:56:46.702Z,982.02
2019-01-13T08:57:46.880Z,982.05
2019-01-13T08:58:47.166Z,981.98
2019-01-13T08:59:47.204Z,981.94
2019-01-13T09:00:47.374Z,981.91
2019-01-13T09:01:47.614Z,981.93
2019-01-13T09:02:47.678Z,981.92
2019-01-13T09:03:49.207Z,981.90
2019-01-13T09:04:47.998Z,981.87
2019-01-13T09:05:48.162Z,981.87
2019-01-13T09:06:48.344Z,981.86
2019-01-13T09:07:48.542Z,981.85
2019-01-13T09:08:48.681Z,981.83
2019-01-13T09:09:48.859Z,981.85
2019-01-13T09:10:49.013Z,981.85
2019-01-13T09:11:49.261Z,981.78
2019-01-13T09:12:56.370Z,981.75
2019-01-13T09:13:49.528Z,981.77
2019-01-13T09:14:49.689Z,981.73
2019-01-13T09:15:49.906Z,981.75
2019-01-13T09:16:50.137Z,981.70
2019-01-13T09:17:50.308Z,981.73
2019-01-13T09:18:50.460Z,981.67
2019-01-13T09:19:50.636Z,981.64
2019-01-13T09:20:50.829Z,981.60
2019-01-13T09:21:50.996Z,981.61
2019-01-13T09:22:51.159Z,981.59
2019-01-13T09:23:51.327Z,981.59
2019-01-13T09:24:51.555Z,981.58
2019-01-13T09:25:51.664Z,981.50
2019-01-13T09:26:51.828Z,981.48
2019-01-13T09:27:52.004Z,981.49
2019-01-13T09:28:52.176Z,981.43
2019-01-13T09:29:52.358Z,981.37
2019-01-13T09:30:52.547Z,981.37
2019-01-13T09:31:52.715Z,981.36
2019-01-13T09:32:52.874Z,981.40
2019-01-13T09:33:53.109Z,981.33
2019-01-13T09:34:53.259Z,981.34
2019-01-13T09:35:53.390Z,981.32
2019-01-13T09:36:53.562Z,981.32
2019-01-13T09:37:53.733Z,981.29
2019-01-13T09:38:53.903Z,981.28
2019-01-13T09:39:54.025Z,981.23
2019-01-13T09:40:54.180Z,981.22
2019-01-13T09:41:54.345Z,981.17
2019-01-13T09:42:54.515Z,981.17
2019-01-13T09:43:54.687Z,981.16
2019-01-13T09:44:54.850Z,981.08
2019-01-13T09:45:55.024Z,981.13
2019-01-13T09:46:55.193Z,981.06
2019-01-13T09:47:55.366Z,981.05
2019-01-13T09:48:55.560Z,981.03
2019-01-13T09:49:55.738Z,981.06
2019-01-13T09:50:55.938Z,981.02
2019-01-13T09:51:56.116Z,981.01
2019-01-13T09:52:56.292Z,980.91
2019-01-13T09:53:56.454Z,980.95
2019-01-13T09:54:57.957Z,980.93
2019-01-13T09:55:56.747Z,980.95
2019-01-13T09:56:56.927Z,980.90
2019-01-13T09:57:57.095Z,980.85
2019-01-13T09:58:57.433Z,980.81
2019-01-13T09:59:57.662Z,980.82
2019-01-13T10:00:57.579Z,980.74
2019-01-13T10:01:57.763Z,980.73
2019-01-13T10:02:58.919Z,980.71
2019-01-13T10:03:58.392Z,980.69
2019-01-13T10:04:58.336Z,980.66
2019-01-13T10:05:58.371Z,980.63
2019-01-13T10:06:59.819Z,980.57
2019-01-13T10:07:58.755Z,980.56
2019-01-13T10:08:58.913Z,980.54
2019-01-13T10:09:59.211Z,980.51
2019-01-13T10:10:59.233Z,980.47
2019-01-13T10:11:59.516Z,980.47
2019-01-13T10:12:59.509Z,980.44
2019-01-13T10:13:59.851Z,980.47
2019-01-13T10:15:00.599Z,980.41
2019-01-13T10:16:00.859Z,980.35
2019-01-13T10:17:00.224Z,980.36
2019-01-13T10:18:00.265Z,980.33
2019-01-13T10:19:00.508Z,980.25
2019-01-13T10:20:00.646Z,980.22
2019-01-13T10:21:00.823Z,980.29
2019-01-13T10:22:01.031Z,980.21
2019-01-13T10:23:01.183Z,980.20
2019-01-13T10:24:01.431Z,980.18
2019-01-13T10:25:01.562Z,980.22
2019-01-13T10:26:02.850Z,980.25
2019-01-13T10:27:03.110Z,980.19
2019-01-13T10:28:03.173Z,980.25
2019-01-13T10:29:03.520Z,980.20
2019-01-13T10:30:03.382Z,980.19
2019-01-13T10:31:03.296Z,980.12
2019-01-13T10:32:02.866Z,980.10
2019-01-13T10:33:03.001Z,980.07
2019-01-13T10:34:03.173Z,980.07
2019-01-13T10:35:03.335Z,980.03
2019-01-13T10:36:03.526Z,980.02
2019-01-13T10:37:03.705Z,980.04
2019-01-13T10:38:03.921Z,980.02
2019-01-13T10:39:04.102Z,980.02
2019-01-13T10:40:04.340Z,979.98
2019-01-13T10:41:04.469Z,979.94
2019-01-13T10:42:04.682Z,979.85
2019-01-13T10:43:04.873Z,979.83
2019-01-13T10:44:05.031Z,979.86
2019-01-13T10:45:05.229Z,979.84
2019-01-13T10:46:05.389Z,979.81
2019-01-13T10:47:05.546Z,979.77
2019-01-13T10:48:05.784Z,979.76
2019-01-13T10:49:05.843Z,979.74
2019-01-13T10:50:06.040Z,979.69
2019-01-13T10:51:06.255Z,979.72
2019-01-13T10:52:06.405Z,979.72
2019-01-13T10:53:06.599Z,979.61
2019-01-13T10:54:09.304Z,979.65
2019-01-13T10:55:06.923Z,979.62
2019-01-13T10:56:07.081Z,979.56
2019-01-13T10:57:07.252Z,979.57
2019-01-13T10:58:07.412Z,979.53
2019-01-13T10:59:07.629Z,979.55
2019-01-13T11:00:07.738Z,979.51
2019-01-13T11:01:07.907Z,979.46
2019-01-13T11:02:08.067Z,979.35
2019-01-13T11:03:08.240Z,979.37
2019-01-13T11:04:08.411Z,979.39
2019-01-13T11:05:08.559Z,979.41
2019-01-13T11:06:08.745Z,979.39
2019-01-13T11:07:08.917Z,979.37
2019-01-13T11:08:11.819Z,979.29
2019-01-13T11:09:09.330Z,979.27
2019-01-13T11:10:09.390Z,979.23
2019-01-13T11:11:09.596Z,979.17
2019-01-13T11:12:09.734Z,979.15
2019-01-13T11:13:09.937Z,979.15
2019-01-13T11:14:10.062Z,979.10
2019-01-13T11:15:10.103Z,979.08
2019-01-13T11:16:10.284Z,979.08
2019-01-13T11:17:10.428Z,979.03
2019-01-13T11:18:10.606Z,978.95
2019-01-13T11:19:10.770Z,978.97
2019-01-13T11:20:10.945Z,978.89
2019-01-13T11:21:11.121Z,978.93
2019-01-13T11:22:11.278Z,978.89
2019-01-13T11:23:11.451Z,978.94
2019-01-13T11:24:11.632Z,978.92
2019-01-13T11:25:11.790Z,978.87
2019-01-13T11:26:12.086Z,978.80
2019-01-13T11:27:12.114Z,978.80
2019-01-13T11:28:12.623Z,978.72
2019-01-13T11:29:12.431Z,978.64
2019-01-13T11:30:12.642Z,978.59
2019-01-13T11:31:12.811Z,978.58
2019-01-13T11:32:13.168Z,978.48
2019-01-13T11:33:13.380Z,978.48
2019-01-13T11:34:13.268Z,978.44
2019-01-13T11:35:13.501Z,978.38
2019-01-13T11:36:13.758Z,978.48
2019-01-13T11:37:13.919Z,978.48
2019-01-13T11:38:14.190Z,978.46
2019-01-13T11:39:14.071Z,978.39
2019-01-13T11:40:14.292Z,978.38
2019-01-13T11:41:14.388Z,978.43
2019-01-13T11:42:14.512Z,978.39
2019-01-13T11:43:14.761Z,978.45
2019-01-13T11:44:14.980Z,978.47
2019-01-13T11:45:15.136Z,978.48
2019-01-13T11:46:16.285Z,978.42
2019-01-13T11:47:15.457Z,978.37
2019-01-13T11:48:15.669Z,978.38
2019-01-13T11:49:16.125Z,978.33
2019-01-13T11:50:16.044Z,978.32
2019-01-13T11:51:16.212Z,978.27
2019-01-13T11:52:16.384Z,978.23
2019-01-13T11:53:16.583Z,978.20
2019-01-13T11:54:16.741Z,978.20
2019-01-13T11:55:16.909Z,978.24
2019-01-13T11:56:17.081Z,978.25
2019-01-13T11:57:17.253Z,978.13
2019-01-13T11:58:17.430Z,978.11
2019-01-13T11:59:17.589Z,978.07
2019-01-13T12:00:17.762Z,978.08
2019-01-13T12:01:17.937Z,978.00
2019-01-13T12:02:18.110Z,977.95
2019-01-13T12:03:18.225Z,977.85
2019-01-13T12:04:18.381Z,977.80
2019-01-13T12:05:18.543Z,977.82
2019-01-13T12:06:18.727Z,977.83
2019-01-13T12:07:18.901Z,977.83
2019-01-13T12:08:19.065Z,977.75
2019-01-13T12:09:19.235Z,977.79
2019-01-13T12:10:19.401Z,977.69
2019-01-13T12:11:19.573Z,977.65
2019-01-13T12:12:19.798Z,977.64
2019-01-13T12:13:19.862Z,977.53
2019-01-13T12:14:20.035Z,977.53
2019-01-13T12:15:20.201Z,977.49
2019-01-13T12:16:20.385Z,977.50
2019-01-13T12:17:20.546Z,977.46
2019-01-13T12:18:20.756Z,977.49
2019-01-13T12:19:20.916Z,977.46
2019-01-13T12:20:22.853Z,977.46
2019-01-13T12:21:21.300Z,977.39
2019-01-13T12:22:21.420Z,977.36
2019-01-13T12:23:21.591Z,977.32
2019-01-13T12:24:21.743Z,977.29
2019-01-13T12:25:21.913Z,977.25
2019-01-13T12:26:22.074Z,977.30
2019-01-13T12:27:22.233Z,977.34
2019-01-13T12:28:22.430Z,977.27
2019-01-13T12:29:22.591Z,977.26
2019-01-13T12:30:22.758Z,977.28